sensor_id;sensor_type;location;lat;lon;timestamp;P1;durP1;ratioP1;P2;durP2;ratioP2
55467;SDS011;41332;42.702;23.200;2023-06-10T00:01:58;5.60;;;5.00;;
55467;SDS011;41332;42.702;23.200;2023-06-10T00:04:25;6.43;;;5.43;;
55467;SDS011;41332;42.702;23.200;2023-06-10T00:06:50;7.50;;;5.93;;
55467;SDS011;41332;42.702;23.200;2023-06-10T00:09:16;6.05;;;5.45;;
55467;SDS011;41332;42.702;23.200;2023-06-10T00:11:43;6.68;;;5.50;;
55467;SDS011;41332;42.702;23.200;2023-06-10T00:14:09;5.97;;;5.38;;
55467;SDS011;41332;42.702;23.200;2023-06-10T00:16:34;6.05;;;5.45;;
55467;SDS011;41332;42.702;23.200;2023-06-10T00:19:01;6.72;;;5.68;;
55467;SDS011;41332;42.702;23.200;2023-06-10T00:21:30;8.68;;;5.43;;
55467;SDS011;41332;42.702;23.200;2023-06-10T00:24:05;8.43;;;5.38;;
55467;SDS011;41332;42.702;23.200;2023-06-10T00:26:40;7.63;;;5.07;;
55467;SDS011;41332;42.702;23.200;2023-06-10T00:29:06;8.27;;;6.20;;
55467;SDS011;41332;42.702;23.200;2023-06-10T00:31:33;5.95;;;5.45;;
55467;SDS011;41332;42.702;23.200;2023-06-10T00:33:59;6.63;;;5.63;;
55467;SDS011;41332;42.702;23.200;2023-06-10T00:36:24;7.30;;;5.25;;
55467;SDS011;41332;42.702;23.200;2023-06-10T00:38:50;6.47;;;5.28;;
55467;SDS011;41332;42.702;23.200;2023-06-10T00:41:15;6.30;;;4.93;;
55467;SDS011;41332;42.702;23.200;2023-06-10T00:43:41;10.02;;;6.13;;
55467;SDS011;41332;42.702;23.200;2023-06-10T00:46:06;7.30;;;5.40;;
55467;SDS011;41332;42.702;23.200;2023-06-10T00:48:32;7.90;;;6.18;;
55467;SDS011;41332;42.702;23.200;2023-06-10T00:50:58;7.50;;;6.55;;
55467;SDS011;41332;42.702;23.200;2023-06-10T00:53:25;7.50;;;6.38;;
55467;SDS011;41332;42.702;23.200;2023-06-10T00:55:51;6.75;;;6.05;;
55467;SDS011;41332;42.702;23.200;2023-06-10T00:58:17;5.97;;;5.38;;
55467;SDS011;41332;42.702;23.200;2023-06-10T01:00:45;6.85;;;5.95;;
55467;SDS011;41332;42.702;23.200;2023-06-10T01:03:11;6.45;;;5.18;;
55467;SDS011;41332;42.702;23.200;2023-06-10T01:05:37;6.35;;;5.10;;
55467;SDS011;41332;42.702;23.200;2023-06-10T01:10:51;5.38;;;4.88;;
55467;SDS011;41332;42.702;23.200;2023-06-10T01:13:20;6.25;;;5.05;;
55467;SDS011;41332;42.702;23.200;2023-06-10T01:15:49;8.80;;;4.97;;
55467;SDS011;41332;42.702;23.200;2023-06-10T01:18:15;6.55;;;5.20;;
55467;SDS011;41332;42.702;23.200;2023-06-10T01:20:41;5.05;;;4.60;;
55467;SDS011;41332;42.702;23.200;2023-06-10T01:23:08;8.67;;;5.80;;
55467;SDS011;41332;42.702;23.200;2023-06-10T01:25:38;7.70;;;5.10;;
55467;SDS011;41332;42.702;23.200;2023-06-10T01:28:21;7.65;;;5.93;;
55467;SDS011;41332;42.702;23.200;2023-06-10T01:33:38;6.00;;;5.40;;
55467;SDS011;41332;42.702;23.200;2023-06-10T01:36:11;5.85;;;5.30;;
55467;SDS011;41332;42.702;23.200;2023-06-10T01:38:42;6.13;;;5.07;;
55467;SDS011;41332;42.702;23.200;2023-06-10T01:41:09;6.28;;;5.43;;
55467;SDS011;41332;42.702;23.200;2023-06-10T01:43:37;6.30;;;5.60;;
55467;SDS011;41332;42.702;23.200;2023-06-10T01:46:04;4.72;;;4.35;;
55467;SDS011;41332;42.702;23.200;2023-06-10T01:48:29;6.22;;;5.63;;
55467;SDS011;41332;42.702;23.200;2023-06-10T01:50:55;8.55;;;6.28;;
55467;SDS011;41332;42.702;23.200;2023-06-10T01:53:23;6.93;;;4.45;;
55467;SDS011;41332;42.702;23.200;2023-06-10T01:55:49;5.43;;;5.00;;
55467;SDS011;41332;42.702;23.200;2023-06-10T01:58:14;5.70;;;5.20;;
55467;SDS011;41332;42.702;23.200;2023-06-10T02:00:40;7.65;;;5.57;;
55467;SDS011;41332;42.702;23.200;2023-06-10T02:03:05;6.32;;;5.10;;
55467;SDS011;41332;42.702;23.200;2023-06-10T02:05:31;6.03;;;4.68;;
55467;SDS011;41332;42.702;23.200;2023-06-10T02:07:57;5.55;;;5.05;;
55467;SDS011;41332;42.702;23.200;2023-06-10T02:10:22;6.65;;;5.30;;
55467;SDS011;41332;42.702;23.200;2023-06-10T02:12:47;5.43;;;5.00;;
55467;SDS011;41332;42.702;23.200;2023-06-10T02:15:13;6.32;;;5.07;;
55467;SDS011;41332;42.702;23.200;2023-06-10T02:17:38;4.78;;;4.30;;
55467;SDS011;41332;42.702;23.200;2023-06-10T02:20:04;5.88;;;5.00;;
55467;SDS011;41332;42.702;23.200;2023-06-10T02:22:32;7.07;;;4.78;;
55467;SDS011;41332;42.702;23.200;2023-06-10T02:24:58;6.07;;;5.55;;
55467;SDS011;41332;42.702;23.200;2023-06-10T02:27:23;5.70;;;4.50;;
55467;SDS011;41332;42.702;23.200;2023-06-10T02:29:49;5.18;;;4.75;;
55467;SDS011;41332;42.702;23.200;2023-06-10T02:32:14;5.90;;;4.85;;
55467;SDS011;41332;42.702;23.200;2023-06-10T02:34:40;5.32;;;4.82;;
55467;SDS011;41332;42.702;23.200;2023-06-10T02:37:07;7.03;;;5.13;;
55467;SDS011;41332;42.702;23.200;2023-06-10T02:39:33;4.80;;;4.38;;
55467;SDS011;41332;42.702;23.200;2023-06-10T02:41:58;5.07;;;4.43;;
55467;SDS011;41332;42.702;23.200;2023-06-10T02:44:24;5.43;;;5.00;;
55467;SDS011;41332;42.702;23.200;2023-06-10T02:46:49;5.93;;;4.95;;
55467;SDS011;41332;42.702;23.200;2023-06-10T02:49:15;5.80;;;5.22;;
55467;SDS011;41332;42.702;23.200;2023-06-10T02:51:40;4.70;;;4.30;;
55467;SDS011;41332;42.702;23.200;2023-06-10T02:54:06;7.55;;;5.13;;
55467;SDS011;41332;42.702;23.200;2023-06-10T02:56:31;7.72;;;4.88;;
55467;SDS011;41332;42.702;23.200;2023-06-10T02:58:58;5.37;;;4.80;;
55467;SDS011;41332;42.702;23.200;2023-06-10T03:01:23;5.97;;;5.45;;
55467;SDS011;41332;42.702;23.200;2023-06-10T03:03:49;7.85;;;6.10;;
55467;SDS011;41332;42.702;23.200;2023-06-10T03:06:15;8.60;;;5.25;;
55467;SDS011;41332;42.702;23.200;2023-06-10T03:08:41;5.22;;;4.35;;
55467;SDS011;41332;42.702;23.200;2023-06-10T03:11:06;10.18;;;5.35;;
55467;SDS011;41332;42.702;23.200;2023-06-10T03:13:32;4.88;;;4.45;;
55467;SDS011;41332;42.702;23.200;2023-06-10T03:15:57;7.38;;;6.05;;
55467;SDS011;41332;42.702;23.200;2023-06-10T03:18:26;8.38;;;6.72;;
55467;SDS011;41332;42.702;23.200;2023-06-10T03:20:53;8.82;;;6.15;;
55467;SDS011;41332;42.702;23.200;2023-06-10T03:23:18;6.32;;;4.85;;
55467;SDS011;41332;42.702;23.200;2023-06-10T03:25:44;9.05;;;6.70;;
55467;SDS011;41332;42.702;23.200;2023-06-10T03:28:10;6.03;;;5.53;;
55467;SDS011;41332;42.702;23.200;2023-06-10T03:30:36;6.05;;;5.55;;
55467;SDS011;41332;42.702;23.200;2023-06-10T03:33:01;6.82;;;5.38;;
55467;SDS011;41332;42.702;23.200;2023-06-10T03:35:26;6.72;;;6.22;;
55467;SDS011;41332;42.702;23.200;2023-06-10T03:37:52;7.80;;;5.88;;
55467;SDS011;41332;42.702;23.200;2023-06-10T03:40:17;6.40;;;5.80;;
55467;SDS011;41332;42.702;23.200;2023-06-10T03:42:43;6.47;;;5.88;;
55467;SDS011;41332;42.702;23.200;2023-06-10T03:45:11;7.63;;;5.85;;
55467;SDS011;41332;42.702;23.200;2023-06-10T03:47:37;5.85;;;5.28;;
55467;SDS011;41332;42.702;23.200;2023-06-10T03:50:03;6.13;;;5.53;;
55467;SDS011;41332;42.702;23.200;2023-06-10T03:52:29;6.13;;;5.53;;
55467;SDS011;41332;42.702;23.200;2023-06-10T03:54:55;6.45;;;5.50;;
55467;SDS011;41332;42.702;23.200;2023-06-10T03:57:21;6.00;;;5.30;;
55467;SDS011;41332;42.702;23.200;2023-06-10T03:59:46;5.30;;;4.82;;
55467;SDS011;41332;42.702;23.200;2023-06-10T04:02:11;7.15;;;5.63;;
55467;SDS011;41332;42.702;23.200;2023-06-10T04:04:37;6.30;;;5.70;;
55467;SDS011;41332;42.702;23.200;2023-06-10T04:07:03;9.18;;;5.65;;
55467;SDS011;41332;42.702;23.200;2023-06-10T04:09:31;5.85;;;5.35;;
55467;SDS011;41332;42.702;23.200;2023-06-10T04:11:57;7.97;;;5.68;;
55467;SDS011;41332;42.702;23.200;2023-06-10T04:14:22;6.72;;;5.95;;
55467;SDS011;41332;42.702;23.200;2023-06-10T04:16:47;9.88;;;6.00;;
55467;SDS011;41332;42.702;23.200;2023-06-10T04:19:13;5.65;;;5.13;;
55467;SDS011;41332;42.702;23.200;2023-06-10T04:21:38;8.02;;;6.13;;
55467;SDS011;41332;42.702;23.200;2023-06-10T04:24:04;6.45;;;5.80;;
55467;SDS011;41332;42.702;23.200;2023-06-10T04:26:30;13.10;;;6.45;;
55467;SDS011;41332;42.702;23.200;2023-06-10T04:28:55;7.75;;;6.25;;
55467;SDS011;41332;42.702;23.200;2023-06-10T04:31:20;6.45;;;5.80;;
55467;SDS011;41332;42.702;23.200;2023-06-10T04:33:46;6.18;;;5.68;;
55467;SDS011;41332;42.702;23.200;2023-06-10T04:36:11;6.65;;;5.93;;
55467;SDS011;41332;42.702;23.200;2023-06-10T04:38:37;7.65;;;5.60;;
55467;SDS011;41332;42.702;23.200;2023-06-10T04:41:02;8.27;;;5.82;;
55467;SDS011;41332;42.702;23.200;2023-06-10T04:43:28;6.55;;;5.60;;
55467;SDS011;41332;42.702;23.200;2023-06-10T04:45:54;7.13;;;5.40;;
55467;SDS011;41332;42.702;23.200;2023-06-10T04:48:20;7.72;;;5.05;;
55467;SDS011;41332;42.702;23.200;2023-06-10T04:50:45;5.78;;;5.05;;
55467;SDS011;41332;42.702;23.200;2023-06-10T04:53:11;6.53;;;5.93;;
55467;SDS011;41332;42.702;23.200;2023-06-10T04:55:36;6.53;;;5.88;;
55467;SDS011;41332;42.702;23.200;2023-06-10T04:58:02;5.63;;;4.70;;
55467;SDS011;41332;42.702;23.200;2023-06-10T05:00:27;5.32;;;4.85;;
55467;SDS011;41332;42.702;23.200;2023-06-10T05:02:52;8.68;;;6.13;;
55467;SDS011;41332;42.702;23.200;2023-06-10T05:05:18;6.57;;;5.32;;
55467;SDS011;41332;42.702;23.200;2023-06-10T05:07:44;6.20;;;5.47;;
55467;SDS011;41332;42.702;23.200;2023-06-10T05:10:09;6.18;;;5.68;;
55467;SDS011;41332;42.702;23.200;2023-06-10T05:15:04;6.15;;;5.55;;
55467;SDS011;41332;42.702;23.200;2023-06-10T05:17:30;6.63;;;5.75;;
55467;SDS011;41332;42.702;23.200;2023-06-10T05:19:55;6.13;;;5.63;;
55467;SDS011;41332;42.702;23.200;2023-06-10T05:22:21;5.63;;;5.10;;
55467;SDS011;41332;42.702;23.200;2023-06-10T05:24:49;5.93;;;5.43;;
55467;SDS011;41332;42.702;23.200;2023-06-10T05:27:14;7.53;;;5.63;;
55467;SDS011;41332;42.702;23.200;2023-06-10T05:29:40;6.03;;;5.53;;
55467;SDS011;41332;42.702;23.200;2023-06-10T05:32:05;5.88;;;5.25;;
55467;SDS011;41332;42.702;23.200;2023-06-10T05:34:31;6.90;;;5.28;;
55467;SDS011;41332;42.702;23.200;2023-06-10T05:36:57;5.00;;;4.53;;
55467;SDS011;41332;42.702;23.200;2023-06-10T05:39:22;5.88;;;4.80;;
55467;SDS011;41332;42.702;23.200;2023-06-10T05:41:48;4.95;;;4.55;;
55467;SDS011;41332;42.702;23.200;2023-06-10T05:44:13;7.82;;;4.90;;
55467;SDS011;41332;42.702;23.200;2023-06-10T05:46:39;5.75;;;5.28;;
55467;SDS011;41332;42.702;23.200;2023-06-10T05:49:04;7.38;;;4.85;;
55467;SDS011;41332;42.702;23.200;2023-06-10T05:51:29;6.30;;;5.38;;
55467;SDS011;41332;42.702;23.200;2023-06-10T05:53:55;4.35;;;3.95;;
55467;SDS011;41332;42.702;23.200;2023-06-10T05:56:20;4.80;;;4.47;;
55467;SDS011;41332;42.702;23.200;2023-06-10T05:58:49;5.13;;;4.07;;
55467;SDS011;41332;42.702;23.200;2023-06-10T06:01:14;5.38;;;4.80;;
55467;SDS011;41332;42.702;23.200;2023-06-10T06:03:40;5.38;;;4.88;;
55467;SDS011;41332;42.702;23.200;2023-06-10T06:06:05;5.30;;;4.80;;
55467;SDS011;41332;42.702;23.200;2023-06-10T06:08:31;5.60;;;5.10;;
55467;SDS011;41332;42.702;23.200;2023-06-10T06:10:56;6.13;;;4.90;;
55467;SDS011;41332;42.702;23.200;2023-06-10T06:13:22;4.97;;;4.53;;
55467;SDS011;41332;42.702;23.200;2023-06-10T06:15:50;5.63;;;5.13;;
55467;SDS011;41332;42.702;23.200;2023-06-10T06:18:15;9.15;;;5.78;;
55467;SDS011;41332;42.702;23.200;2023-06-10T06:20:41;6.13;;;5.32;;
55467;SDS011;41332;42.702;23.200;2023-06-10T06:23:06;10.05;;;5.30;;
55467;SDS011;41332;42.702;23.200;2023-06-10T06:25:34;5.45;;;4.75;;
55467;SDS011;41332;42.702;23.200;2023-06-10T06:28:00;6.63;;;5.03;;
55467;SDS011;41332;42.702;23.200;2023-06-10T06:30:26;8.75;;;4.95;;
55467;SDS011;41332;42.702;23.200;2023-06-10T06:32:51;4.70;;;4.20;;
55467;SDS011;41332;42.702;23.200;2023-06-10T06:35:17;5.00;;;4.50;;
55467;SDS011;41332;42.702;23.200;2023-06-10T06:37:45;6.38;;;5.07;;
55467;SDS011;41332;42.702;23.200;2023-06-10T06:40:11;5.88;;;4.90;;
55467;SDS011;41332;42.702;23.200;2023-06-10T06:42:36;5.35;;;4.80;;
55467;SDS011;41332;42.702;23.200;2023-06-10T06:45:02;4.85;;;4.47;;
55467;SDS011;41332;42.702;23.200;2023-06-10T06:47:27;5.75;;;5.03;;
55467;SDS011;41332;42.702;23.200;2023-06-10T06:49:53;6.25;;;5.65;;
55467;SDS011;41332;42.702;23.200;2023-06-10T06:52:18;5.63;;;4.55;;
55467;SDS011;41332;42.702;23.200;2023-06-10T06:54:44;5.38;;;4.85;;
55467;SDS011;41332;42.702;23.200;2023-06-10T06:57:09;5.07;;;4.57;;
55467;SDS011;41332;42.702;23.200;2023-06-10T06:59:35;6.85;;;4.78;;
55467;SDS011;41332;42.702;23.200;2023-06-10T07:02:00;7.53;;;4.43;;
55467;SDS011;41332;42.702;23.200;2023-06-10T07:04:25;4.43;;;3.92;;
55467;SDS011;41332;42.702;23.200;2023-06-10T07:06:51;5.05;;;4.55;;
55467;SDS011;41332;42.702;23.200;2023-06-10T07:09:16;4.68;;;4.35;;
55467;SDS011;41332;42.702;23.200;2023-06-10T07:11:41;4.35;;;3.95;;
55467;SDS011;41332;42.702;23.200;2023-06-10T07:14:07;6.18;;;4.07;;
55467;SDS011;41332;42.702;23.200;2023-06-10T07:16:32;5.68;;;4.05;;
55467;SDS011;41332;42.702;23.200;2023-06-10T07:18:58;5.30;;;4.03;;
55467;SDS011;41332;42.702;23.200;2023-06-10T07:21:23;4.07;;;3.75;;
55467;SDS011;41332;42.702;23.200;2023-06-10T07:23:49;6.45;;;3.67;;
55467;SDS011;41332;42.702;23.200;2023-06-10T07:26:17;7.70;;;4.65;;
55467;SDS011;41332;42.702;23.200;2023-06-10T07:28:48;3.28;;;3.00;;
55467;SDS011;41332;42.702;23.200;2023-06-10T07:31:14;3.45;;;3.13;;
55467;SDS011;41332;42.702;23.200;2023-06-10T07:33:39;4.07;;;3.78;;
55467;SDS011;41332;42.702;23.200;2023-06-10T07:36:05;4.15;;;3.28;;
55467;SDS011;41332;42.702;23.200;2023-06-10T07:38:31;3.00;;;2.80;;
55467;SDS011;41332;42.702;23.200;2023-06-10T07:40:57;3.42;;;2.95;;
55467;SDS011;41332;42.702;23.200;2023-06-10T07:43:22;2.92;;;2.72;;
55467;SDS011;41332;42.702;23.200;2023-06-10T07:45:48;4.65;;;3.22;;
55467;SDS011;41332;42.702;23.200;2023-06-10T07:48:14;3.55;;;3.25;;
55467;SDS011;41332;42.702;23.200;2023-06-10T07:50:39;4.57;;;3.22;;
55467;SDS011;41332;42.702;23.200;2023-06-10T07:53:05;3.00;;;2.70;;
55467;SDS011;41332;42.702;23.200;2023-06-10T07:55:30;4.22;;;2.70;;
55467;SDS011;41332;42.702;23.200;2023-06-10T07:57:56;3.03;;;2.80;;
55467;SDS011;41332;42.702;23.200;2023-06-10T08:00:21;3.25;;;2.95;;
55467;SDS011;41332;42.702;23.200;2023-06-10T08:02:47;4.15;;;3.08;;
55467;SDS011;41332;42.702;23.200;2023-06-10T08:05:15;3.00;;;2.80;;
55467;SDS011;41332;42.702;23.200;2023-06-10T08:07:41;4.53;;;2.83;;
55467;SDS011;41332;42.702;23.200;2023-06-10T08:10:06;3.28;;;2.97;;
55467;SDS011;41332;42.702;23.200;2023-06-10T08:12:32;3.30;;;2.72;;
55467;SDS011;41332;42.702;23.200;2023-06-10T08:14:58;6.40;;;3.17;;
55467;SDS011;41332;42.702;23.200;2023-06-10T08:17:24;5.07;;;3.30;;
55467;SDS011;41332;42.702;23.200;2023-06-10T08:19:49;3.45;;;2.88;;
55467;SDS011;41332;42.702;23.200;2023-06-10T08:22:15;5.05;;;2.97;;
55467;SDS011;41332;42.702;23.200;2023-06-10T08:24:40;3.58;;;3.28;;
55467;SDS011;41332;42.702;23.200;2023-06-10T08:27:06;3.23;;;2.93;;
55467;SDS011;41332;42.702;23.200;2023-06-10T08:29:31;3.63;;;3.00;;
55467;SDS011;41332;42.702;23.200;2023-06-10T08:31:57;4.13;;;3.23;;
55467;SDS011;41332;42.702;23.200;2023-06-10T08:34:23;4.13;;;3.73;;
55467;SDS011;41332;42.702;23.200;2023-06-10T08:36:48;4.47;;;3.10;;
55467;SDS011;41332;42.702;23.200;2023-06-10T08:39:18;4.18;;;2.92;;
55467;SDS011;41332;42.702;23.200;2023-06-10T08:41:44;3.83;;;3.30;;
55467;SDS011;41332;42.702;23.200;2023-06-10T08:44:25;2.35;;;2.22;;
55467;SDS011;41332;42.702;23.200;2023-06-10T08:46:55;2.40;;;2.20;;
55467;SDS011;41332;42.702;23.200;2023-06-10T08:49:23;2.65;;;2.42;;
55467;SDS011;41332;42.702;23.200;2023-06-10T08:51:53;3.30;;;2.58;;
55467;SDS011;41332;42.702;23.200;2023-06-10T08:54:25;3.88;;;2.67;;
55467;SDS011;41332;42.702;23.200;2023-06-10T08:56:54;5.03;;;2.30;;
55467;SDS011;41332;42.702;23.200;2023-06-10T08:59:21;3.10;;;2.83;;
55467;SDS011;41332;42.702;23.200;2023-06-10T09:01:47;2.13;;;2.03;;
55467;SDS011;41332;42.702;23.200;2023-06-10T09:04:15;3.42;;;3.13;;
55467;SDS011;41332;42.702;23.200;2023-06-10T09:06:42;2.88;;;2.58;;
55467;SDS011;41332;42.702;23.200;2023-06-10T09:09:09;4.80;;;2.55;;
55467;SDS011;41332;42.702;23.200;2023-06-10T09:11:35;3.17;;;2.60;;
55467;SDS011;41332;42.702;23.200;2023-06-10T09:14:00;2.90;;;2.70;;
55467;SDS011;41332;42.702;23.200;2023-06-10T09:16:27;3.03;;;2.72;;
55467;SDS011;41332;42.702;23.200;2023-06-10T09:18:53;2.70;;;1.93;;
55467;SDS011;41332;42.702;23.200;2023-06-10T09:21:23;2.88;;;2.00;;
55467;SDS011;41332;42.702;23.200;2023-06-10T09:23:49;2.10;;;2.00;;
55467;SDS011;41332;42.702;23.200;2023-06-10T09:26:15;2.95;;;2.10;;
55467;SDS011;41332;42.702;23.200;2023-06-10T09:28:44;2.30;;;2.10;;
55467;SDS011;41332;42.702;23.200;2023-06-10T09:31:15;3.22;;;1.98;;
55467;SDS011;41332;42.702;23.200;2023-06-10T09:33:43;2.70;;;2.20;;
55467;SDS011;41332;42.702;23.200;2023-06-10T09:36:09;2.45;;;2.35;;
55467;SDS011;41332;42.702;23.200;2023-06-10T09:38:35;4.63;;;2.60;;
55467;SDS011;41332;42.702;23.200;2023-06-10T09:41:01;2.43;;;2.23;;
55467;SDS011;41332;42.702;23.200;2023-06-10T09:46:03;2.80;;;2.10;;
55467;SDS011;41332;42.702;23.200;2023-06-10T09:48:29;2.80;;;2.60;;
55467;SDS011;41332;42.702;23.200;2023-06-10T09:50:54;2.03;;;1.93;;
55467;SDS011;41332;42.702;23.200;2023-06-10T09:53:20;2.80;;;2.60;;
55467;SDS011;41332;42.702;23.200;2023-06-10T09:55:46;2.33;;;2.20;;
55467;SDS011;41332;42.702;23.200;2023-06-10T09:58:11;2.43;;;2.23;;
55467;SDS011;41332;42.702;23.200;2023-06-10T10:00:36;4.00;;;2.53;;
55467;SDS011;41332;42.702;23.200;2023-06-10T10:03:02;1.77;;;1.67;;
55467;SDS011;41332;42.702;23.200;2023-06-10T10:05:28;2.03;;;1.92;;
55467;SDS011;41332;42.702;23.200;2023-06-10T10:07:54;1.85;;;1.75;;
55467;SDS011;41332;42.702;23.200;2023-06-10T10:10:21;2.10;;;1.90;;
55467;SDS011;41332;42.702;23.200;2023-06-10T10:12:51;2.13;;;2.03;;
55467;SDS011;41332;42.702;23.200;2023-06-10T10:15:21;2.38;;;2.17;;
55467;SDS011;41332;42.702;23.200;2023-06-10T10:18:06;2.58;;;2.38;;
55467;SDS011;41332;42.702;23.200;2023-06-10T10:20:34;1.98;;;1.80;;
55467;SDS011;41332;42.702;23.200;2023-06-10T10:23:05;2.33;;;2.10;;
55467;SDS011;41332;42.702;23.200;2023-06-10T10:25:37;2.33;;;1.80;;
55467;SDS011;41332;42.702;23.200;2023-06-10T10:28:09;1.67;;;1.58;;
55467;SDS011;41332;42.702;23.200;2023-06-10T10:30:40;2.97;;;2.10;;
55467;SDS011;41332;42.702;23.200;2023-06-10T10:33:12;3.05;;;2.78;;
55467;SDS011;41332;42.702;23.200;2023-06-10T10:35:41;3.35;;;2.03;;
55467;SDS011;41332;42.702;23.200;2023-06-10T10:38:08;2.38;;;2.17;;
55467;SDS011;41332;42.702;23.200;2023-06-10T10:40:34;2.50;;;2.30;;
55467;SDS011;41332;42.702;23.200;2023-06-10T10:43:00;2.03;;;1.93;;
55467;SDS011;41332;42.702;23.200;2023-06-10T10:45:30;2.70;;;2.50;;
55467;SDS011;41332;42.702;23.200;2023-06-10T10:47:55;2.28;;;2.10;;
55467;SDS011;41332;42.702;23.200;2023-06-10T10:50:22;2.67;;;2.35;;
55467;SDS011;41332;42.702;23.200;2023-06-10T10:55:21;3.40;;;3.15;;
55467;SDS011;41332;42.702;23.200;2023-06-10T10:57:54;3.13;;;2.30;;
55467;SDS011;41332;42.702;23.200;2023-06-10T11:00:33;3.78;;;2.35;;
55467;SDS011;41332;42.702;23.200;2023-06-10T11:05:36;2.60;;;2.40;;
55467;SDS011;41332;42.702;23.200;2023-06-10T11:08:02;2.20;;;2.10;;
55467;SDS011;41332;42.702;23.200;2023-06-10T11:10:34;2.10;;;2.00;;
55467;SDS011;41332;42.702;23.200;2023-06-10T11:13:13;2.42;;;2.33;;
55467;SDS011;41332;42.702;23.200;2023-06-10T11:15:44;2.55;;;2.38;;
55467;SDS011;41332;42.702;23.200;2023-06-10T11:21:03;2.53;;;2.38;;
55467;SDS011;41332;42.702;23.200;2023-06-10T11:31:26;2.23;;;2.03;;
55467;SDS011;41332;42.702;23.200;2023-06-10T11:33:56;2.65;;;2.55;;
55467;SDS011;41332;42.702;23.200;2023-06-10T11:36:23;2.55;;;2.30;;
55467;SDS011;41332;42.702;23.200;2023-06-10T11:38:49;3.25;;;2.33;;
55467;SDS011;41332;42.702;23.200;2023-06-10T11:41:17;2.08;;;1.95;;
55467;SDS011;41332;42.702;23.200;2023-06-10T11:43:43;5.07;;;2.93;;
55467;SDS011;41332;42.702;23.200;2023-06-10T11:46:10;3.03;;;2.83;;
55467;SDS011;41332;42.702;23.200;2023-06-10T11:48:36;3.15;;;2.08;;
55467;SDS011;41332;42.702;23.200;2023-06-10T11:51:05;2.57;;;2.37;;
55467;SDS011;41332;42.702;23.200;2023-06-10T11:53:34;4.15;;;2.08;;
55467;SDS011;41332;42.702;23.200;2023-06-10T11:56:00;2.90;;;2.70;;
55467;SDS011;41332;42.702;23.200;2023-06-10T11:58:25;3.40;;;3.10;;
55467;SDS011;41332;42.702;23.200;2023-06-10T12:00:51;2.40;;;2.30;;
55467;SDS011;41332;42.702;23.200;2023-06-10T12:03:24;3.45;;;2.72;;
55467;SDS011;41332;42.702;23.200;2023-06-10T12:06:01;2.47;;;2.25;;
55467;SDS011;41332;42.702;23.200;2023-06-10T12:08:28;4.65;;;2.83;;
55467;SDS011;41332;42.702;23.200;2023-06-10T12:10:54;2.70;;;2.50;;
55467;SDS011;41332;42.702;23.200;2023-06-10T12:13:21;3.97;;;3.10;;
55467;SDS011;41332;42.702;23.200;2023-06-10T12:15:48;4.40;;;2.53;;
55467;SDS011;41332;42.702;23.200;2023-06-10T12:20:43;2.97;;;2.53;;
55467;SDS011;41332;42.702;23.200;2023-06-10T12:23:09;3.60;;;3.30;;
55467;SDS011;41332;42.702;23.200;2023-06-10T12:25:35;3.00;;;2.72;;
55467;SDS011;41332;42.702;23.200;2023-06-10T12:28:04;3.05;;;2.65;;
55467;SDS011;41332;42.702;23.200;2023-06-10T12:32:57;3.10;;;2.90;;
55467;SDS011;41332;42.702;23.200;2023-06-10T12:35:23;8.10;;;2.97;;
55467;SDS011;41332;42.702;23.200;2023-06-10T12:38:00;3.17;;;2.88;;
55467;SDS011;41332;42.702;23.200;2023-06-10T12:40:31;4.60;;;2.95;;
55467;SDS011;41332;42.702;23.200;2023-06-10T12:42:58;3.85;;;2.78;;
55467;SDS011;41332;42.702;23.200;2023-06-10T12:45:28;3.10;;;2.85;;
55467;SDS011;41332;42.702;23.200;2023-06-10T12:48:07;3.05;;;2.60;;
55467;SDS011;41332;42.702;23.200;2023-06-10T12:50:35;6.60;;;3.95;;
55467;SDS011;41332;42.702;23.200;2023-06-10T12:53:04;2.53;;;2.33;;
55467;SDS011;41332;42.702;23.200;2023-06-10T12:55:30;2.57;;;2.30;;
55467;SDS011;41332;42.702;23.200;2023-06-10T12:57:56;2.67;;;2.47;;
55467;SDS011;41332;42.702;23.200;2023-06-10T13:00:22;3.73;;;2.70;;
55467;SDS011;41332;42.702;23.200;2023-06-10T13:02:51;7.18;;;4.47;;
55467;SDS011;41332;42.702;23.200;2023-06-10T13:05:18;4.45;;;2.70;;
55467;SDS011;41332;42.702;23.200;2023-06-10T13:07:45;5.00;;;2.88;;
55467;SDS011;41332;42.702;23.200;2023-06-10T13:10:12;7.53;;;3.75;;
55467;SDS011;41332;42.702;23.200;2023-06-10T13:12:38;6.68;;;4.07;;
55467;SDS011;41332;42.702;23.200;2023-06-10T13:15:04;5.63;;;4.25;;
55467;SDS011;41332;42.702;23.200;2023-06-10T13:17:30;6.77;;;4.03;;
55467;SDS011;41332;42.702;23.200;2023-06-10T13:19:55;4.50;;;3.05;;
55467;SDS011;41332;42.702;23.200;2023-06-10T13:22:20;3.05;;;2.80;;
55467;SDS011;41332;42.702;23.200;2023-06-10T13:24:46;4.05;;;3.25;;
55467;SDS011;41332;42.702;23.200;2023-06-10T13:27:12;10.15;;;4.30;;
55467;SDS011;41332;42.702;23.200;2023-06-10T13:29:39;5.15;;;4.57;;
55467;SDS011;41332;42.702;23.200;2023-06-10T13:32:05;6.10;;;3.58;;
55467;SDS011;41332;42.702;23.200;2023-06-10T13:34:31;3.50;;;3.20;;
55467;SDS011;41332;42.702;23.200;2023-06-10T13:36:56;4.40;;;3.70;;
55467;SDS011;41332;42.702;23.200;2023-06-10T13:39:22;5.63;;;3.72;;
55467;SDS011;41332;42.702;23.200;2023-06-10T13:41:47;3.85;;;3.45;;
55467;SDS011;41332;42.702;23.200;2023-06-10T13:44:12;3.45;;;3.10;;
55467;SDS011;41332;42.702;23.200;2023-06-10T13:46:38;5.22;;;3.88;;
55467;SDS011;41332;42.702;23.200;2023-06-10T13:49:03;6.70;;;4.03;;
55467;SDS011;41332;42.702;23.200;2023-06-10T13:51:29;3.72;;;3.42;;
55467;SDS011;41332;42.702;23.200;2023-06-10T13:53:54;4.00;;;3.50;;
55467;SDS011;41332;42.702;23.200;2023-06-10T13:56:19;3.60;;;3.28;;
55467;SDS011;41332;42.702;23.200;2023-06-10T13:58:45;4.07;;;3.70;;
55467;SDS011;41332;42.702;23.200;2023-06-10T14:01:10;7.00;;;4.15;;
55467;SDS011;41332;42.702;23.200;2023-06-10T14:03:35;3.90;;;3.40;;
55467;SDS011;41332;42.702;23.200;2023-06-10T14:06:01;8.32;;;3.78;;
55467;SDS011;41332;42.702;23.200;2023-06-10T14:08:27;3.95;;;3.05;;
55467;SDS011;41332;42.702;23.200;2023-06-10T14:10:52;5.65;;;3.42;;
55467;SDS011;41332;42.702;23.200;2023-06-10T14:13:18;5.07;;;3.28;;
55467;SDS011;41332;42.702;23.200;2023-06-10T14:15:43;2.95;;;2.75;;
55467;SDS011;41332;42.702;23.200;2023-06-10T14:18:10;4.25;;;2.75;;
55467;SDS011;41332;42.702;23.200;2023-06-10T14:20:36;4.75;;;2.75;;
55467;SDS011;41332;42.702;23.200;2023-06-10T14:23:01;3.22;;;3.03;;
55467;SDS011;41332;42.702;23.200;2023-06-10T14:25:27;2.58;;;2.38;;
55467;SDS011;41332;42.702;23.200;2023-06-10T14:27:52;3.35;;;3.05;;
55467;SDS011;41332;42.702;23.200;2023-06-10T14:30:18;3.40;;;3.10;;
55467;SDS011;41332;42.702;23.200;2023-06-10T14:32:43;2.72;;;2.53;;
55467;SDS011;41332;42.702;23.200;2023-06-10T14:35:09;2.58;;;2.38;;
55467;SDS011;41332;42.702;23.200;2023-06-10T14:37:35;3.67;;;2.60;;
55467;SDS011;41332;42.702;23.200;2023-06-10T14:40:00;6.15;;;3.20;;
55467;SDS011;41332;42.702;23.200;2023-06-10T14:42:26;2.75;;;2.55;;
55467;SDS011;41332;42.702;23.200;2023-06-10T14:44:51;4.90;;;3.13;;
55467;SDS011;41332;42.702;23.200;2023-06-10T14:47:16;2.92;;;2.72;;
55467;SDS011;41332;42.702;23.200;2023-06-10T14:49:42;2.97;;;2.78;;
55467;SDS011;41332;42.702;23.200;2023-06-10T14:52:08;2.88;;;2.67;;
55467;SDS011;41332;42.702;23.200;2023-06-10T14:54:34;4.72;;;3.10;;
55467;SDS011;41332;42.702;23.200;2023-06-10T14:56:59;2.65;;;2.53;;
55467;SDS011;41332;42.702;23.200;2023-06-10T14:59:25;3.50;;;2.63;;
55467;SDS011;41332;42.702;23.200;2023-06-10T15:01:50;2.90;;;2.70;;